Latest Coastal Weather Observations for Roebourne Airport

IDW60701

Issued at 4:53 pm WST Monday 29 August 2016 (issued every 10 minutes, with the page automatically refreshed every 10 minutes)

About coastal observations | Map of coastal stations | Coastal observations for WA | Marine services | Other Formats
Station Details ID: 004090 Name: ROEBOURNE AERO Lat: -20.76 Lon: 117.16 Height: 10.7 m
Data from the previous 72 hours. | See also: Recent months at Roebourne Airport
Date/Time
WST
Temp
°C
Wind Pressure Rain since
9am
mm
Weather Cloud Vis
km
Sea
Height
m
Swell
Dir  Spd
kts
Gust
kts
hPa Trend Height
m
Period
s
Dir
29/04:30pm 25.2 NW 16 21 1010.2 - 0.0 - - - - - - -
29/04:00pm 26.0 NNW 17 21 1010.1 - 0.0 - - - - - - -
29/03:30pm 26.7 NW 14 20 1010.1 - 0.0 - - - - - - -
29/03:00pm 28.1 WSW 6 12 1010.0 - 0.0 - - - - - - -
29/02:30pm 27.7 SSW 9 14 1010.3 - 0.0 - - - - - - -
29/02:00pm 27.6 SSW 7 11 1010.6 - 0.0 - - - - - - -
29/01:30pm 27.3 S 8 14 1011.1 - 0.0 - - - - - - -
29/01:00pm 26.9 SSW 7 14 1011.6 - 0.0 - - - - - - -
29/12:30pm 25.9 WSW 7 11 1012.0 - 0.0 - - - - - - -
29/12:00pm 26.0 SSW 8 14 1012.3 - 0.0 - - - - - - -
29/11:30am 25.5 SW 8 14 1012.9 - 0.0 - - - - - - -
29/11:00am 24.1 WSW 7 11 1013.2 - 0.0 - - - - - - -
29/10:30am 23.8 SSW 7 11 1013.5 - 0.0 - - - - - - -
29/10:00am 23.0 SSW 8 15 1013.7 - 0.0 - - - - - - -
29/09:30am 23.2 S 10 15 1013.6 - 0.0 - - - - - - -
29/09:00am 22.3 S 11 14 1013.7 - 0.2 - - - - - - -
29/08:30am 21.4 S 11 14 1013.9 - 0.2 - - - - - - -
29/08:00am 19.9 S 6 9 1014.0 - 0.2 - - - - - - -
29/07:30am 17.8 SSW 6 7 1013.8 - 0.2 - - - - - - -
29/07:00am 14.8 SW 7 8 1013.4 - 0.2 - - - - - - -
29/06:30am 12.2 SSW 7 8 1013.0 - 0.2 - - - - - - -
29/06:00am 13.6 SSW 7 8 1012.8 - 0.2 - - - - - - -
29/05:30am 13.9 SSW 7 8 1012.3 - 0.2 - - - - - - -
29/05:00am 14.2 SSW 8 9 1011.6 - 0.2 - - - - - - -
29/04:30am 15.0 SW 6 6 1011.7 - 0.2 - - - - - - -
29/04:00am 15.4 SW 8 9 1011.2 - 0.2 - - - - - - -
29/03:30am 15.0 SW 8 8 1011.1 - 0.2 - - - - - - -
29/03:00am 15.4 SSW 6 6 1011.2 - 0.2 - - - - - - -
29/02:30am 17.7 WSW 7 9 1011.5 - 0.2 - - - - - - -
29/02:00am 18.2 WSW 7 9 1011.5 - 0.2 - - - - - - -
29/01:30am 17.7 W 6 7 1011.2 - 0.2 - - - - - - -
29/01:00am 18.6 W 6 8 1011.5 - 0.2 - - - - - - -
29/12:30am 19.2 W 6 8 1011.6 - 0.2 - - - - - - -
29/12:00am 20.2 W 7 11 1012.4 - 0.2 - - - - - - -
 
Date/Time
WST
Temp
°C
Wind Pressure Rain since
9am
mm
Weather Cloud Vis
km
Sea
Height
m
Swell
Dir  Spd
kts
Gust
kts
hPa Trend Height
m
Period
s
Dir
28/11:30pm 20.4 W 7 10 1012.1 - 0.2 - - - - - - -
28/11:00pm 20.6 WNW 8 11 1012.3 - 0.2 - - - - - - -
28/10:30pm 20.8 W 9 12 1012.3 - 0.2 - - - - - - -
28/10:00pm 21.0 W 12 14 1012.7 - 0.2 - - - - - - -
28/09:30pm 21.1 W 11 15 1012.5 - 0.2 - - - - - - -
28/09:00pm 21.2 W 11 15 1012.7 - 0.2 - - - - - - -
28/08:30pm 21.2 WNW 11 14 1012.3 - 0.2 - - - - - - -
28/08:00pm 21.2 WNW 11 14 1012.0 - 0.2 - - - - - - -
28/07:30pm 21.0 W 11 13 1011.7 - 0.2 - - - - - - -
28/07:00pm 22.0 NW 11 14 1011.4 - 0.2 - - - - - - -
28/06:30pm 22.2 WNW 11 14 1011.5 - 0.2 - - - - - - -
28/06:00pm 22.2 NW 14 17 1011.0 - 0.2 - - - - - - -
28/05:30pm 22.8 WNW 14 17 1011.0 - 0.2 - - - - - - -
28/05:00pm 23.6 WNW 14 18 1011.0 - 0.2 - - - - - - -
28/04:30pm 23.6 WNW 12 15 1010.8 - 0.2 - - - - - - -
28/04:00pm 24.1 WNW 14 19 1011.1 - 0.2 - - - - - - -
28/03:30pm 23.9 WNW 14 17 1011.0 - 0.2 - - - - - - -
28/03:00pm 23.9 NW 13 18 1010.4 - 0.2 - - - - - - -
28/02:30pm 24.7 NW 13 17 1010.6 - 0.2 - - - - - - -
28/02:00pm 24.9 WNW 13 16 1011.2 - 0.2 - - - - - - -
28/01:30pm 24.8 WNW 10 15 1011.3 - 0.2 - - - - - - -
28/01:00pm 24.9 WNW 12 15 1011.4 - 0.2 - - - - - - -
28/12:30pm 24.5 W 11 15 1012.1 - 0.0 - - - - - - -
28/12:00pm 24.4 W 10 14 1012.5 - 0.0 - - - - - - -
28/11:30am 24.4 W 8 14 1013.0 - 0.0 - - - - - - -
28/11:00am 23.5 WSW 9 13 1013.3 - 0.0 - - - - - - -
28/10:30am 24.5 WSW 8 12 1013.6 - 0.0 - - - - - - -
28/10:00am 23.4 SW 9 12 1014.1 - 0.0 - - - - - - -
28/09:30am 23.1 WSW 9 14 1014.0 - 0.0 - - - - - - -
28/09:00am 21.8 SW 7 9 1013.6 - 0.4 - - - - - - -
28/08:30am 21.8 SW 7 10 1013.5 - 0.4 - - - - - - -
28/08:00am 21.5 SW 7 9 1013.2 - 0.4 - - - - - - -
28/07:30am 21.3 WSW 6 8 1012.9 - 0.4 - - - - - - -
28/07:00am 21.2 WSW 5 7 1012.2 - 0.2 - - - - - - -
28/06:30am 21.2 WSW 8 10 1012.5 - 0.2 - - - - - - -
28/06:00am 21.1 W 10 13 1012.1 - 0.2 - - - - - - -
28/05:30am 21.6 W 6 8 1011.5 - 0.2 - - - - - - -
28/05:00am 21.5 WNW 6 7 1011.7 - 0.2 - - - - - - -
28/04:30am 21.5 WSW 5 7 1011.6 - 0.2 - - - - - - -
28/04:00am 21.4 W 6 7 1011.7 - 0.2 - - - - - - -
28/03:30am 21.7 W 7 10 1011.7 - 0.0 - - - - - - -
28/03:00am 21.8 WNW 5 7 1011.7 - 0.0 - - - - - - -
28/02:30am 22.0 WNW 4 5 1011.8 - 0.0 - - - - - - -
28/02:00am 22.3 W 5 6 1012.1 - 0.0 - - - - - - -
28/01:30am 22.2 WNW 4 5 1012.1 - 0.0 - - - - - - -
28/01:00am 22.4 W 5 6 1012.4 - 0.0 - - - - - - -
28/12:30am 22.2 W 7 8 1012.6 - 0.0 - - - - - - -
28/12:00am 22.0 WSW 6 8 1012.8 - 0.0 - - - - - - -
 
Date/Time
WST
Temp
°C
Wind Pressure Rain since
9am
mm
Weather Cloud Vis
km
Sea
Height
m
Swell
Dir  Spd
kts
Gust
kts
hPa Trend Height
m
Period
s
Dir
27/11:30pm 21.7 W 7 9 1013.0 - 0.0 - - - - - - -
27/11:00pm 21.5 W 7 8 1013.1 - 0.0 - - - - - - -
27/10:30pm 21.3 WNW 7 9 1012.9 - 0.0 - - - - - - -
27/10:00pm 21.6 WNW 8 10 1013.1 - 0.0 - - - - - - -
27/09:30pm 21.8 WNW 9 12 1013.1 - 0.0 - - - - - - -
27/09:00pm 22.0 WNW 9 11 1013.1 - 0.0 - - - - - - -
27/08:30pm 22.1 WNW 8 10 1012.8 - 0.0 - - - - - - -
27/08:00pm 22.3 NW 8 10 1012.7 - 0.0 - - - - - - -
27/07:30pm 22.6 WNW 9 10 1012.6 - 0.0 - - - - - - -
27/07:00pm 23.1 NW 10 13 1012.1 - 0.0 - - - - - - -
27/06:30pm 23.5 WNW 7 9 1011.8 - 0.0 - - - - - - -
27/06:00pm 24.7 NW 9 13 1011.6 - 0.0 - - - - - - -
27/05:30pm 26.0 WNW 12 16 1011.5 - 0.0 - - - - - - -
27/05:00pm 26.8 WNW 14 18 1011.4 - 0.0 - - - - - - -
27/04:30pm 27.7 NW 14 19 1011.1 - 0.0 - - - - - - -
27/04:00pm 27.9 NW 12 18 1011.1 - 0.0 - - - - - - -
27/03:30pm 28.3 WNW 11 15 1011.0 - 0.0 - - - - - - -
27/03:00pm 27.9 NW 12 19 1011.1 - 0.0 - - - - - - -
27/02:30pm 28.0 NW 8 14 1011.4 - 0.0 - - - - - - -
27/02:00pm 27.8 NW 13 18 1011.8 - 0.0 - - - - - - -
27/01:30pm 27.1 NW 14 21 1012.2 - 0.0 - - - - - - -
27/01:00pm 28.6 NW 14 21 1012.6 - 0.0 - - - - - - -
27/12:30pm 28.5 NNW 13 20 1013.0 - 0.0 - - - - - - -
27/12:00pm 27.1 NNE 12 19 1013.5 - 0.0 - - - - - - -
27/11:30am 28.1 NNW 11 15 1013.9 - 0.0 - - - - - - -
27/11:00am 27.9 NNW 11 15 1014.3 - 0.0 - - - - - - -
27/10:30am 27.0 NNW 8 14 1014.8 - 0.0 - - - - - - -
27/10:00am 26.0 WNW 6 10 1015.3 - 0.0 - - - - - - -
27/09:30am 25.1 WNW 4 8 1015.5 - 0.0 - - - - - - -
27/09:00am 23.2 W 3 5 1015.2 - 0.0 - - - - - - -
27/08:30am 21.7 NNW 1 5 1015.0 - 0.0 - - - - - - -
27/08:00am 19.4 SSE 3 5 1014.6 - 0.0 - - - - - - -
27/07:30am 16.2 SW 3 4 1014.4 - 0.0 - - - - - - -
27/07:00am 11.9 SW 3 5 1014.1 - 0.0 - - - - - - -
27/06:30am 10.5 SW 5 6 1013.8 - 0.0 - - - - - - -
27/06:00am 10.7 CALM 0 3 1013.9 - 0.0 - - - - - - -
27/05:30am 10.8 NNW 3 4 1013.7 - 0.0 - - - - - - -
27/05:00am 11.4 SSW 6 7 1013.4 - 0.0 - - - - - - -
27/04:30am 10.3 SW 1 5 1012.9 - 0.0 - - - - - - -
27/04:00am 11.3 CALM 0 0 1012.8 - 0.0 - - - - - - -
27/03:30am 12.8 CALM 0 0 1012.8 - 0.0 - - - - - - -
27/03:00am 11.9 SW 5 6 1012.9 - 0.0 - - - - - - -
27/02:30am 13.0 CALM 0 0 1013.0 - 0.0 - - - - - - -
27/02:00am 14.3 SW 4 5 1013.3 - 0.0 - - - - - - -
27/01:30am 15.0 SW 6 7 1013.5 - 0.0 - - - - - - -
27/01:00am 14.7 SSW 9 9 1013.8 - 0.0 - - - - - - -
27/12:30am 13.1 SW 5 6 1013.8 - 0.0 - - - - - - -
27/12:00am 12.3 WSW 3 4 1013.9 - 0.0 - - - - - - -
 
Date/Time
WST
Temp
°C
Wind Pressure Rain since
9am
mm
Weather Cloud Vis
km
Sea
Height
m
Swell
Dir  Spd
kts
Gust
kts
hPa Trend Height
m
Period
s
Dir
26/11:30pm 13.4 WNW 4 4 1014.1 - 0.0 - - - - - - -
26/11:00pm 16.0 NW 5 6 1014.2 - 0.0 - - - - - - -
26/10:30pm 16.9 NW 6 7 1014.8 - 0.0 - - - - - - -
26/10:00pm 16.7 NW 6 6 1015.0 - 0.0 - - - - - - -
26/09:30pm 16.7 NNW 5 5 1015.1 - 0.0 - - - - - - -
26/09:00pm 16.6 NNW 5 6 1015.1 - 0.0 - - - - - - -
26/08:30pm 16.6 NW 6 7 1015.2 - 0.0 - - - - - - -
26/08:00pm 16.8 NNW 8 8 1015.1 - 0.0 - - - - - - -
26/07:30pm 18.1 N 8 9 1015.1 - 0.0 - - - - - - -
26/07:00pm 19.0 NNW 9 9 1014.8 - 0.0 - - - - - - -
26/06:30pm 21.0 N 8 9 1014.3 - 0.0 - - - - - - -
26/06:00pm 22.3 N 11 14 1013.9 - 0.0 - - - - - - -
26/05:30pm 23.7 NNE 14 17 1013.7 - 0.0 - - - - - - -
26/05:00pm 24.5 NNE 14 18 1013.6 - 0.0 - - - - - - -

Other Formats:

Comma delimited format used in spreadsheet applications
http://www.bom.gov.au/fwo/IDW60701/IDW60701.94308.axf

JavaScript Object Notation format (JSON) in row-major order
http://www.bom.gov.au/fwo/IDW60701/IDW60701.94308.json